createdAt,value
2023-04-08T00:00:35.674Z,28.99
2023-04-08T00:01:35.742Z,28.98
2023-04-08T00:02:35.910Z,28.98
2023-04-08T00:03:35.961Z,28.98
2023-04-08T00:04:35.931Z,29.02
2023-04-08T00:05:35.910Z,28.95
2023-04-08T00:06:35.972Z,28.98
2023-04-08T00:07:35.991Z,28.95
2023-04-08T00:08:36.033Z,28.97
2023-04-08T00:09:36.098Z,28.94
2023-04-08T00:10:36.156Z,28.95
2023-04-08T00:11:36.168Z,28.95
2023-04-08T00:12:36.217Z,28.94
2023-04-08T00:13:36.287Z,28.95
2023-04-08T00:14:36.312Z,28.95
2023-04-08T00:15:36.334Z,28.95
2023-04-08T00:16:36.405Z,28.95
2023-04-08T00:17:36.473Z,28.92
2023-04-08T00:18:36.513Z,28.92
2023-04-08T00:19:36.531Z,28.95
2023-04-08T00:20:36.547Z,28.94
2023-04-08T00:21:36.652Z,28.91
2023-04-08T00:22:36.713Z,28.94
2023-04-08T00:23:36.728Z,28.94
2023-04-08T00:24:36.764Z,28.94
2023-04-08T00:25:36.780Z,28.91
2023-04-08T00:26:36.839Z,28.92
2023-04-08T00:27:36.910Z,28.94
2023-04-08T00:28:36.977Z,28.92
2023-04-08T00:29:37.004Z,28.89
2023-04-08T00:30:37.061Z,28.91
2023-04-08T00:31:37.060Z,28.91
2023-04-08T00:32:37.164Z,28.92
2023-04-08T00:33:37.208Z,28.91
2023-04-08T00:34:37.221Z,28.87
2023-04-08T00:35:37.308Z,28.91
2023-04-08T00:36:37.335Z,28.89
2023-04-08T00:37:37.362Z,28.91
2023-04-08T00:38:37.419Z,28.89
2023-04-08T00:39:37.461Z,28.88
2023-04-08T00:40:37.458Z,28.89
2023-04-08T00:41:37.567Z,28.89
2023-04-08T00:42:37.637Z,28.87
2023-04-08T00:43:37.660Z,28.85
2023-04-08T00:44:37.704Z,28.89
2023-04-08T00:45:37.699Z,28.88
2023-04-08T00:46:37.903Z,28.89
2023-04-08T00:47:37.905Z,28.83
2023-04-08T00:48:37.896Z,28.85
2023-04-08T00:49:37.977Z,28.87
2023-04-08T00:50:38.011Z,28.87
2023-04-08T00:51:38.078Z,28.85
2023-04-08T00:52:38.133Z,28.87
2023-04-08T00:53:38.160Z,28.85
2023-04-08T00:54:38.213Z,28.85
2023-04-08T00:55:38.280Z,28.87
2023-04-08T00:56:38.335Z,28.87
2023-04-08T00:57:38.385Z,28.85
2023-04-08T00:58:38.453Z,28.85
2023-04-08T00:59:38.485Z,28.87
2023-04-08T01:00:38.518Z,28.85
2023-04-08T01:01:38.665Z,28.85
2023-04-08T01:02:38.701Z,28.81
2023-04-08T01:03:38.887Z,28.82
2023-04-08T01:04:38.797Z,28.82
2023-04-08T01:05:38.869Z,28.83
2023-04-08T01:06:38.875Z,28.81
2023-04-08T01:07:38.986Z,28.82
2023-04-08T01:08:38.997Z,28.81
2023-04-08T01:09:39.036Z,28.81
2023-04-08T01:10:39.090Z,28.82
2023-04-08T01:11:39.151Z,28.82
2023-04-08T01:12:39.211Z,28.81
2023-04-08T01:13:39.263Z,28.79
2023-04-08T01:14:39.303Z,28.82
2023-04-08T01:15:39.405Z,28.81
2023-04-08T01:16:39.438Z,28.78
2023-04-08T01:17:39.523Z,28.78
2023-04-08T01:18:39.656Z,28.78
2023-04-08T01:19:39.594Z,28.78
2023-04-08T01:20:39.619Z,28.78
2023-04-08T01:21:39.674Z,28.78
2023-04-08T01:22:39.731Z,28.78
2023-04-08T01:23:39.836Z,28.77
2023-04-08T01:24:39.844Z,28.77
2023-04-08T01:25:39.911Z,28.77
2023-04-08T01:26:40.019Z,28.77
2023-04-08T01:27:40.027Z,28.77
2023-04-08T01:28:40.120Z,28.74
2023-04-08T01:29:40.115Z,28.78
2023-04-08T01:30:40.201Z,28.77
2023-04-08T01:31:40.295Z,28.77
2023-04-08T01:32:40.410Z,28.75
2023-04-08T01:33:40.422Z,28.77
2023-04-08T01:34:40.429Z,28.75
2023-04-08T01:35:40.540Z,28.75
2023-04-08T01:36:40.552Z,28.75
2023-04-08T01:37:40.610Z,28.74
2023-04-08T01:38:40.661Z,28.74
2023-04-08T01:39:40.726Z,28.74
2023-04-08T01:40:40.783Z,28.72
2023-04-08T01:41:40.866Z,28.72
2023-04-08T01:42:40.906Z,28.72
2023-04-08T01:43:41.023Z,28.72
2023-04-08T01:44:41.069Z,28.74
2023-04-08T01:45:41.105Z,28.72
2023-04-08T01:46:41.143Z,28.74
2023-04-08T01:47:41.233Z,28.71
2023-04-08T01:48:41.290Z,28.72
2023-04-08T01:49:41.357Z,28.72
2023-04-08T01:50:41.434Z,28.72
2023-04-08T01:51:41.448Z,28.69
2023-04-08T01:52:41.531Z,28.69
2023-04-08T01:53:41.572Z,28.71
2023-04-08T01:54:41.592Z,28.71
2023-04-08T01:55:41.697Z,28.68
2023-04-08T01:56:41.756Z,28.68
2023-04-08T01:57:41.832Z,28.69
2023-04-08T01:58:42.045Z,28.69
2023-04-08T01:59:42.299Z,28.68
2023-04-08T02:00:42.134Z,28.68
2023-04-08T02:01:42.068Z,28.68
2023-04-08T02:02:42.363Z,28.68
2023-04-08T02:03:42.180Z,28.65
2023-04-08T02:04:42.381Z,28.68
2023-04-08T02:05:42.181Z,28.68
2023-04-08T02:06:42.265Z,28.68
2023-04-08T02:07:42.291Z,28.67
2023-04-08T02:08:42.359Z,28.67
2023-04-08T02:09:42.421Z,28.67
2023-04-08T02:10:42.513Z,28.65
2023-04-08T02:11:42.510Z,28.65
2023-04-08T02:12:42.581Z,28.64
2023-04-08T02:13:42.694Z,28.65
2023-04-08T02:14:42.706Z,28.65
2023-04-08T02:15:42.752Z,28.68
2023-04-08T02:16:42.907Z,28.64
2023-04-08T02:17:42.907Z,28.65
2023-04-08T02:18:42.937Z,28.67
2023-04-08T02:19:42.997Z,28.64
2023-04-08T02:20:43.051Z,28.65
2023-04-08T02:21:43.099Z,28.67
2023-04-08T02:22:43.159Z,28.65
2023-04-08T02:23:43.219Z,28.65
2023-04-08T02:24:43.270Z,28.64
2023-04-08T02:25:43.353Z,28.64
2023-04-08T02:26:43.394Z,28.62
2023-04-08T02:27:43.478Z,28.64
2023-04-08T02:28:43.469Z,28.65
2023-04-08T02:29:43.584Z,28.64
2023-04-08T02:30:43.585Z,28.61
2023-04-08T02:31:43.671Z,28.62
2023-04-08T02:32:43.752Z,28.61
2023-04-08T02:33:43.752Z,28.62
2023-04-08T02:34:43.807Z,28.62
2023-04-08T02:35:43.911Z,28.62
2023-04-08T02:36:43.935Z,28.59
2023-04-08T02:37:44.047Z,28.62
2023-04-08T02:38:44.050Z,28.61
2023-04-08T02:39:44.137Z,28.62
2023-04-08T02:40:44.217Z,28.62
2023-04-08T02:41:44.282Z,28.61
2023-04-08T02:42:44.293Z,28.58
2023-04-08T02:43:44.313Z,28.59
2023-04-08T02:44:44.379Z,28.59
2023-04-08T02:45:44.482Z,28.61
2023-04-08T02:46:44.484Z,28.61
2023-04-08T02:47:44.477Z,28.58
2023-04-08T02:48:44.546Z,28.59
2023-04-08T02:49:44.585Z,28.59
2023-04-08T02:50:44.597Z,28.58
2023-04-08T02:51:44.623Z,28.59
2023-04-08T02:52:44.693Z,28.58
2023-04-08T02:53:44.707Z,28.58
2023-04-08T02:54:44.712Z,28.58
2023-04-08T02:55:44.766Z,28.56
2023-04-08T02:56:44.835Z,28.55
2023-04-08T02:57:45.077Z,28.58
2023-04-08T02:58:44.836Z,28.56
2023-04-08T02:59:44.860Z,28.58
2023-04-08T03:00:44.938Z,28.56
2023-04-08T03:01:45.059Z,28.58
2023-04-08T03:02:45.069Z,28.55
2023-04-08T03:03:45.231Z,28.56
2023-04-08T03:04:45.041Z,28.56
2023-04-08T03:05:45.091Z,28.55
2023-04-08T03:06:45.100Z,28.56
2023-04-08T03:07:45.106Z,28.56
2023-04-08T03:08:45.082Z,28.55
2023-04-08T03:09:45.212Z,28.54
2023-04-08T03:10:45.154Z,28.55
2023-04-08T03:11:45.218Z,28.54
2023-04-08T03:12:45.181Z,28.54
2023-04-08T03:13:45.252Z,28.55
2023-04-08T03:14:45.197Z,28.55
2023-04-08T03:15:45.283Z,28.55
2023-04-08T03:16:45.346Z,28.54
2023-04-08T03:17:45.444Z,28.54
2023-04-08T03:18:45.547Z,28.51
2023-04-08T03:19:45.543Z,28.51
2023-04-08T03:20:45.572Z,28.54
2023-04-08T03:21:45.553Z,28.50
2023-04-08T03:22:45.570Z,28.52
2023-04-08T03:23:45.564Z,28.51
2023-04-08T03:24:45.575Z,28.51
2023-04-08T03:25:45.594Z,28.52
2023-04-08T03:26:45.594Z,28.51
2023-04-08T03:27:45.582Z,28.50
2023-04-08T03:28:45.611Z,28.52
2023-04-08T03:29:45.605Z,28.51
2023-04-08T03:30:45.634Z,28.48
2023-04-08T03:31:45.626Z,28.50
2023-04-08T03:32:45.589Z,28.51
2023-04-08T03:33:45.693Z,28.48
2023-04-08T03:34:45.800Z,28.48
2023-04-08T03:35:45.852Z,28.47
2023-04-08T03:36:45.767Z,28.48
2023-04-08T03:37:45.722Z,28.47
2023-04-08T03:38:45.776Z,28.50
2023-04-08T03:39:45.897Z,28.45
2023-04-08T03:40:45.903Z,28.47
2023-04-08T03:41:45.894Z,28.47
2023-04-08T03:42:45.865Z,28.47
2023-04-08T03:43:45.869Z,28.48
2023-04-08T03:44:45.860Z,28.47
2023-04-08T03:45:45.909Z,28.45
2023-04-08T03:46:45.881Z,28.47
2023-04-08T03:47:45.865Z,28.48
2023-04-08T03:48:45.898Z,28.48
2023-04-08T03:49:45.867Z,28.48
2023-04-08T03:50:45.866Z,28.44
2023-04-08T03:51:45.890Z,28.45
2023-04-08T03:52:45.873Z,28.44
2023-04-08T03:53:45.887Z,28.44
2023-04-08T03:54:45.994Z,28.44
2023-04-08T03:55:46.040Z,28.47
2023-04-08T03:56:46.159Z,28.42
2023-04-08T03:57:46.278Z,28.44
2023-04-08T03:58:46.163Z,28.44
2023-04-08T03:59:46.199Z,28.42
2023-04-08T04:00:46.248Z,28.44
2023-04-08T04:01:46.334Z,28.42
2023-04-08T04:02:46.335Z,28.45
2023-04-08T04:03:46.371Z,28.45
2023-04-08T04:04:46.380Z,28.44
2023-04-08T04:05:46.322Z,28.44
2023-04-08T04:06:46.330Z,28.44
2023-04-08T04:07:46.329Z,28.42
2023-04-08T04:08:46.337Z,28.42
2023-04-08T04:09:46.284Z,28.41
2023-04-08T04:10:46.290Z,28.41
2023-04-08T04:11:46.413Z,28.42
2023-04-08T04:12:46.532Z,28.41
2023-04-08T04:13:46.630Z,28.42
2023-04-08T04:14:46.696Z,28.41
2023-04-08T04:15:46.753Z,28.40
2023-04-08T04:16:46.693Z,28.40
2023-04-08T04:17:46.656Z,28.40
2023-04-08T04:18:46.704Z,28.38
2023-04-08T04:19:46.777Z,28.40
2023-04-08T04:20:46.830Z,28.38
2023-04-08T04:21:46.919Z,28.37
2023-04-08T04:22:46.832Z,28.38
2023-04-08T04:23:46.850Z,28.35
2023-04-08T04:24:46.858Z,28.40
2023-04-08T04:25:46.973Z,28.37
2023-04-08T04:26:46.935Z,28.37
2023-04-08T04:27:46.930Z,28.37
2023-04-08T04:28:46.941Z,28.34
2023-04-08T04:29:46.941Z,28.38
2023-04-08T04:30:46.949Z,28.37
2023-04-08T04:31:47.115Z,28.37
2023-04-08T04:32:47.134Z,28.37
2023-04-08T04:33:47.121Z,28.37
2023-04-08T04:34:47.124Z,28.37
2023-04-08T04:35:47.150Z,28.35
2023-04-08T04:36:47.143Z,28.35
2023-04-08T04:37:47.162Z,28.37
2023-04-08T04:38:48.341Z,28.35
2023-04-08T04:39:47.135Z,28.34
2023-04-08T04:40:47.115Z,28.38
2023-04-08T04:41:47.168Z,28.34
2023-04-08T04:42:47.149Z,28.37
2023-04-08T04:43:47.189Z,28.35
2023-04-08T04:44:47.159Z,28.35
2023-04-08T04:45:47.141Z,28.35
2023-04-08T04:46:47.159Z,28.35
2023-04-08T04:47:47.108Z,28.35
2023-04-08T04:48:47.087Z,28.37
2023-04-08T04:49:47.127Z,28.34
2023-04-08T04:50:47.091Z,28.34
2023-04-08T04:51:47.048Z,28.35
2023-04-08T04:52:47.045Z,28.32
2023-04-08T04:53:47.008Z,28.34
2023-04-08T04:54:47.065Z,28.32
2023-04-08T04:55:47.019Z,28.34
2023-04-08T04:56:47.003Z,28.34
2023-04-08T04:57:47.022Z,28.32
2023-04-08T04:58:46.994Z,28.34
2023-04-08T04:59:46.982Z,28.34
2023-04-08T05:00:46.995Z,28.32
2023-04-08T05:01:47.044Z,28.34
2023-04-08T05:02:47.132Z,28.34
2023-04-08T05:03:46.981Z,28.34
2023-04-08T05:04:47.003Z,28.35
2023-04-08T05:05:46.993Z,28.31
2023-04-08T05:06:46.943Z,28.31
2023-04-08T05:07:46.959Z,28.35
2023-04-08T05:08:46.908Z,28.31
2023-04-08T05:09:46.960Z,28.31
2023-04-08T05:10:46.953Z,28.31
2023-04-08T05:11:46.924Z,28.32
2023-04-08T05:12:46.910Z,28.32
2023-04-08T05:13:46.953Z,28.32
2023-04-08T05:14:46.892Z,28.30
2023-04-08T05:15:46.989Z,28.32
2023-04-08T05:16:46.922Z,28.31
2023-04-08T05:17:46.958Z,28.32
2023-04-08T05:18:46.871Z,28.34
2023-04-08T05:19:46.882Z,28.31
2023-04-08T05:20:46.860Z,28.31
2023-04-08T05:21:46.843Z,28.32
2023-04-08T05:22:46.837Z,28.31
2023-04-08T05:23:46.817Z,28.31
2023-04-08T05:24:46.860Z,28.32
2023-04-08T05:25:46.821Z,28.31
2023-04-08T05:26:46.807Z,28.34
2023-04-08T05:27:46.835Z,28.32
2023-04-08T05:28:46.836Z,28.34
2023-04-08T05:29:46.793Z,28.34
2023-04-08T05:30:46.803Z,28.34
2023-04-08T05:31:46.850Z,28.32
2023-04-08T05:32:46.797Z,28.31
2023-04-08T05:33:46.767Z,28.32
2023-04-08T05:34:46.774Z,28.32
2023-04-08T05:35:46.810Z,28.31
2023-04-08T05:36:46.784Z,28.34
2023-04-08T05:37:46.742Z,28.31
2023-04-08T05:38:46.762Z,28.34
2023-04-08T05:39:46.758Z,28.32
2023-04-08T05:40:46.733Z,28.32
2023-04-08T05:41:46.730Z,28.34
2023-04-08T05:42:46.718Z,28.32
2023-04-08T05:43:46.720Z,28.32
2023-04-08T05:44:46.791Z,28.32
2023-04-08T05:45:46.703Z,28.32
2023-04-08T05:46:46.758Z,28.32
2023-04-08T05:47:46.712Z,28.35
2023-04-08T05:48:46.716Z,28.34
2023-04-08T05:49:46.650Z,28.32
2023-04-08T05:50:46.674Z,28.34
2023-04-08T05:51:46.711Z,28.35
2023-04-08T05:52:46.725Z,28.34
2023-04-08T05:53:46.657Z,28.35
2023-04-08T05:54:46.655Z,28.35
2023-04-08T05:55:46.634Z,28.38
2023-04-08T05:56:46.603Z,28.38
2023-04-08T05:57:46.619Z,28.37
2023-04-08T05:58:46.628Z,28.38
2023-04-08T05:59:46.718Z,28.40
2023-04-08T06:00:46.579Z,28.40
2023-04-08T06:01:46.700Z,28.41
2023-04-08T06:02:46.707Z,28.44
2023-04-08T06:03:46.813Z,28.44
2023-04-08T06:04:46.681Z,28.47
2023-04-08T06:05:46.555Z,28.45
2023-04-08T06:06:46.530Z,28.45
2023-04-08T06:07:46.546Z,28.45
2023-04-08T06:08:46.579Z,28.47
2023-04-08T06:09:46.545Z,28.47
2023-04-08T06:10:47.015Z,28.48
2023-04-08T06:11:46.523Z,28.47
2023-04-08T06:12:46.511Z,28.48
2023-04-08T06:13:46.510Z,28.50
2023-04-08T06:14:46.506Z,28.48
2023-04-08T06:15:46.717Z,28.50
2023-04-08T06:16:46.517Z,28.52
2023-04-08T06:17:46.540Z,28.51
2023-04-08T06:18:46.471Z,28.52
2023-04-08T06:19:46.512Z,28.52
2023-04-08T06:20:46.438Z,28.51
2023-04-08T06:21:46.447Z,28.54
2023-04-08T06:22:46.458Z,28.54
2023-04-08T06:23:46.489Z,28.52
2023-04-08T06:24:46.469Z,28.55
2023-04-08T06:25:46.447Z,28.56
2023-04-08T06:26:46.445Z,28.58
2023-04-08T06:27:46.420Z,28.58
2023-04-08T06:28:46.448Z,28.59
2023-04-08T06:29:46.414Z,28.61
2023-04-08T06:30:46.413Z,28.61
2023-04-08T06:31:46.408Z,28.62
2023-04-08T06:32:46.444Z,28.62
2023-04-08T06:33:46.402Z,28.65
2023-04-08T06:34:46.370Z,28.65
2023-04-08T06:35:46.419Z,28.64
2023-04-08T06:36:46.419Z,28.65
2023-04-08T06:37:46.421Z,28.65
2023-04-08T06:38:46.501Z,28.69
2023-04-08T06:39:46.546Z,28.69
2023-04-08T06:40:46.580Z,28.69
2023-04-08T06:41:46.651Z,28.71
2023-04-08T06:42:46.625Z,28.72
2023-04-08T06:43:46.735Z,28.72
2023-04-08T06:44:46.737Z,28.75
2023-04-08T06:45:46.802Z,28.74
2023-04-08T06:46:46.844Z,28.75
2023-04-08T06:47:46.961Z,28.75
2023-04-08T06:48:46.960Z,28.78
2023-04-08T06:49:47.013Z,28.78
2023-04-08T06:50:47.055Z,28.81
2023-04-08T06:51:47.117Z,28.81
2023-04-08T06:52:47.184Z,28.82
2023-04-08T06:53:47.264Z,28.82
2023-04-08T06:54:47.294Z,28.82
2023-04-08T06:55:47.330Z,28.85
2023-04-08T06:56:47.542Z,28.88
2023-04-08T06:57:47.485Z,28.87
2023-04-08T06:58:47.522Z,28.92
2023-04-08T06:59:47.605Z,28.89
2023-04-08T07:00:47.699Z,28.94
2023-04-08T07:01:47.775Z,28.91
2023-04-08T07:02:47.841Z,28.91
2023-04-08T07:03:47.910Z,28.89
2023-04-08T07:04:47.865Z,28.91
2023-04-08T07:05:47.951Z,28.89
2023-04-08T07:06:48.010Z,28.89
2023-04-08T07:07:48.033Z,28.91
2023-04-08T07:08:48.443Z,28.91
2023-04-08T07:09:48.138Z,28.91
2023-04-08T07:10:48.179Z,28.92
2023-04-08T07:11:48.347Z,28.91
2023-04-08T07:12:48.301Z,28.89
2023-04-08T07:13:48.369Z,28.91
2023-04-08T07:14:48.398Z,28.88
2023-04-08T07:15:48.481Z,28.91
2023-04-08T07:16:48.632Z,28.91
2023-04-08T07:17:48.617Z,28.92
2023-04-08T07:18:48.756Z,28.94
2023-04-08T07:19:48.664Z,28.94
2023-04-08T07:20:48.683Z,28.95
2023-04-08T07:21:48.780Z,28.95
2023-04-08T07:22:48.789Z,28.98
2023-04-08T07:23:48.842Z,28.95
2023-04-08T07:24:48.898Z,28.99
2023-04-08T07:25:49.018Z,29.01
2023-04-08T07:26:48.951Z,29.02
2023-04-08T07:27:48.977Z,29.02
2023-04-08T07:28:49.269Z,29.03
2023-04-08T07:29:49.057Z,29.03
2023-04-08T07:30:49.186Z,29.02
2023-04-08T07:31:49.178Z,29.02
2023-04-08T07:32:49.199Z,29.02
2023-04-08T07:33:49.332Z,29.03
2023-04-08T07:34:49.319Z,29.02
2023-04-08T07:35:49.424Z,29.02
2023-04-08T07:36:49.384Z,29.03
2023-04-08T07:37:49.418Z,29.03
2023-04-08T07:38:49.731Z,29.02
2023-04-08T07:39:49.513Z,29.03
2023-04-08T07:40:49.553Z,29.02
2023-04-08T07:41:49.619Z,29.02
2023-04-08T07:42:49.716Z,29.02
2023-04-08T07:43:49.691Z,29.03
2023-04-08T07:44:49.698Z,29.03
2023-04-08T07:45:49.785Z,29.05
2023-04-08T07:46:49.810Z,29.02
2023-04-08T07:47:49.880Z,29.03
2023-04-08T07:48:50.149Z,29.06
2023-04-08T07:49:49.954Z,29.05
2023-04-08T07:51:09.455Z,29.06
2023-04-08T07:51:51.024Z,29.05
2023-04-08T07:52:50.018Z,29.08
2023-04-08T07:53:49.961Z,29.05
2023-04-08T07:54:49.959Z,29.11
2023-04-08T07:55:49.968Z,29.08
2023-04-08T07:56:49.936Z,29.06
2023-04-08T07:57:49.940Z,29.08
2023-04-08T07:58:52.071Z,29.08
2023-04-08T07:59:49.905Z,29.11
2023-04-08T08:00:49.882Z,29.09
2023-04-08T08:01:49.944Z,29.09
2023-04-08T08:02:50.005Z,29.11
2023-04-08T08:03:50.193Z,29.13
2023-04-08T08:04:49.915Z,29.13
2023-04-08T08:05:49.853Z,29.18
2023-04-08T08:06:49.859Z,29.13
2023-04-08T08:07:49.902Z,29.19
2023-04-08T08:08:49.859Z,29.21
2023-04-08T08:09:49.846Z,29.23
2023-04-08T08:10:49.860Z,29.21
2023-04-08T08:11:49.844Z,29.26
2023-04-08T08:12:49.834Z,29.26
2023-04-08T08:13:50.174Z,29.29
2023-04-08T08:14:49.843Z,29.30
2023-04-08T08:15:49.819Z,29.32
2023-04-08T08:16:49.815Z,29.33
2023-04-08T08:17:49.848Z,29.32
2023-04-08T08:18:49.777Z,29.36
2023-04-08T08:19:49.784Z,29.39
2023-04-08T08:20:49.780Z,29.39
2023-04-08T08:21:49.789Z,29.40
2023-04-08T08:22:57.258Z,29.44
2023-04-08T08:23:50.927Z,29.44
2023-04-08T08:24:49.754Z,29.44
2023-04-08T08:25:49.749Z,29.45
2023-04-08T08:26:49.732Z,29.49
2023-04-08T08:27:49.727Z,29.48
2023-04-08T08:28:49.752Z,29.52
2023-04-08T08:29:49.741Z,29.53
2023-04-08T08:30:49.701Z,29.55
2023-04-08T08:31:49.844Z,29.53
2023-04-08T08:32:49.757Z,29.55
2023-04-08T08:33:49.831Z,29.56
2023-04-08T08:34:49.692Z,29.56
2023-04-08T08:35:49.713Z,29.59
2023-04-08T08:36:49.939Z,29.58
2023-04-08T08:37:49.689Z,29.58
2023-04-08T08:38:49.653Z,29.59
2023-04-08T08:39:49.653Z,29.62
2023-04-08T08:40:49.619Z,29.60
2023-04-08T08:41:49.624Z,29.62
2023-04-08T08:42:49.713Z,29.63
2023-04-08T08:43:49.764Z,29.65
2023-04-08T08:44:49.644Z,29.65
2023-04-08T08:45:49.596Z,29.66
2023-04-08T08:46:49.680Z,29.69
2023-04-08T08:47:51.133Z,29.69
2023-04-08T08:48:49.563Z,29.69
2023-04-08T08:49:49.613Z,29.70
2023-04-08T08:50:49.592Z,29.70
2023-04-08T08:51:49.585Z,29.76
2023-04-08T08:52:49.530Z,29.76
2023-04-08T08:53:49.530Z,29.76
2023-04-08T08:54:49.544Z,29.80
2023-04-08T08:56:49.551Z,29.82
2023-04-08T08:57:49.527Z,29.83
2023-04-08T08:58:49.529Z,29.84
2023-04-08T08:59:49.574Z,29.84
2023-04-08T09:00:49.547Z,29.86
2023-04-08T09:01:49.538Z,29.86
2023-04-08T09:02:49.655Z,29.84
2023-04-08T09:03:49.845Z,29.86
2023-04-08T09:04:49.611Z,29.89
2023-04-08T09:05:49.505Z,29.90
2023-04-08T09:06:49.490Z,29.93
2023-04-08T09:07:49.958Z,29.93
2023-04-08T09:08:49.424Z,29.93
2023-04-08T09:09:49.511Z,29.97
2023-04-08T09:10:49.446Z,29.97
2023-04-08T09:11:49.457Z,29.96
2023-04-08T09:12:49.432Z,29.99
2023-04-08T09:13:49.644Z,29.97
2023-04-08T09:14:49.389Z,29.99
2023-04-08T09:16:49.539Z,29.99
2023-04-08T09:17:49.473Z,29.99
2023-04-08T09:18:49.540Z,30.02
2023-04-08T09:19:49.406Z,30.02
2023-04-08T09:20:49.418Z,30.02
2023-04-08T09:21:49.381Z,30.03
2023-04-08T09:22:49.389Z,30.04
2023-04-08T09:23:49.682Z,30.06
2023-04-08T09:24:49.365Z,30.06
2023-04-08T09:25:49.355Z,30.04
2023-04-08T09:26:49.355Z,30.07
2023-04-08T09:27:49.375Z,30.07
2023-04-08T09:28:49.375Z,30.09
2023-04-08T09:29:49.361Z,30.12
2023-04-08T09:30:49.364Z,30.12
2023-04-08T09:31:49.321Z,30.13
2023-04-08T09:32:49.385Z,30.13
2023-04-08T09:33:49.642Z,30.13
2023-04-08T09:34:49.435Z,30.16
2023-04-08T09:35:49.503Z,30.16
2023-04-08T09:36:49.590Z,30.19
2023-04-08T09:37:49.615Z,30.19
2023-04-08T09:38:49.713Z,30.17
2023-04-08T09:39:49.664Z,30.17
2023-04-08T09:40:49.765Z,30.19
2023-04-08T09:41:49.840Z,30.16
2023-04-08T09:42:49.843Z,30.17
2023-04-08T09:43:50.209Z,30.17
2023-04-08T09:44:49.974Z,30.19
2023-04-08T09:45:50.064Z,30.22
2023-04-08T09:46:50.068Z,30.20
2023-04-08T09:47:50.096Z,30.19
2023-04-08T09:48:50.115Z,30.17
2023-04-08T09:49:50.197Z,30.20
2023-04-08T09:50:50.250Z,30.20
2023-04-08T09:51:50.243Z,30.20
2023-04-08T09:52:50.316Z,30.20
2023-04-08T09:53:50.553Z,30.22
2023-04-08T09:54:50.437Z,30.23
2023-04-08T09:55:50.444Z,30.22
2023-04-08T09:56:50.489Z,30.26
2023-04-08T09:57:50.563Z,30.24
2023-04-08T09:58:50.559Z,30.24
2023-04-08T09:59:50.625Z,30.24
2023-04-08T10:00:50.812Z,30.24
2023-04-08T10:01:50.782Z,30.26
2023-04-08T10:02:51.019Z,30.24
2023-04-08T10:03:51.350Z,30.26
2023-04-08T10:04:50.843Z,30.28
2023-04-08T10:05:50.870Z,30.30
2023-04-08T10:06:50.867Z,30.31
2023-04-08T10:07:51.010Z,30.33
2023-04-08T10:08:50.939Z,30.33
2023-04-08T10:09:50.992Z,30.31
2023-04-08T10:10:51.060Z,30.33
2023-04-08T10:11:51.068Z,30.33
2023-04-08T10:12:51.100Z,30.34
2023-04-08T10:13:51.358Z,30.33
2023-04-08T10:14:51.191Z,30.31
2023-04-08T10:15:51.212Z,30.33
2023-04-08T10:16:51.280Z,30.31
2023-04-08T10:17:51.325Z,30.31
2023-04-08T10:18:51.318Z,30.30
2023-04-08T10:19:51.324Z,30.33
2023-04-08T10:20:51.366Z,30.31
2023-04-08T10:21:51.432Z,30.28
2023-04-08T10:22:51.446Z,30.31
2023-04-08T10:23:51.620Z,30.31
2023-04-08T10:24:51.506Z,30.30
2023-04-08T10:25:51.571Z,30.28
2023-04-08T10:26:51.567Z,30.30
2023-04-08T10:27:51.628Z,30.30
2023-04-08T10:28:51.695Z,30.27
2023-04-08T10:29:51.696Z,30.28
2023-04-08T10:30:51.733Z,30.27
2023-04-08T10:31:51.845Z,30.26
2023-04-08T10:32:51.826Z,30.23
2023-04-08T10:33:51.999Z,30.23
2023-04-08T10:34:51.929Z,30.22
2023-04-08T10:35:52.000Z,30.20
2023-04-08T10:36:52.013Z,30.19
2023-04-08T10:37:52.053Z,30.17
2023-04-08T10:38:52.062Z,30.17
2023-04-08T10:39:52.105Z,30.16
2023-04-08T10:40:52.289Z,30.14
2023-04-08T10:41:52.204Z,30.12
2023-04-08T10:42:52.235Z,30.10
2023-04-08T10:43:52.815Z,30.09
2023-04-08T10:44:52.725Z,30.10
2023-04-08T10:45:52.365Z,30.07
2023-04-08T10:46:52.349Z,30.10
2023-04-08T10:47:52.476Z,30.07
2023-04-08T10:48:52.501Z,30.06
2023-04-08T10:49:52.483Z,30.04
2023-04-08T10:50:52.561Z,30.06
2023-04-08T10:51:52.593Z,30.04
2023-04-08T10:52:52.681Z,30.03
2023-04-08T10:53:52.931Z,30.04
2023-04-08T10:54:52.706Z,30.03
2023-04-08T10:55:52.801Z,30.06
2023-04-08T10:56:52.854Z,30.04
2023-04-08T10:57:52.877Z,30.04
2023-04-08T10:58:52.976Z,30.06
2023-04-08T10:59:53.035Z,30.09
2023-04-08T11:00:53.090Z,30.06
2023-04-08T11:01:53.207Z,30.07
2023-04-08T11:02:53.242Z,30.07
2023-04-08T11:03:53.552Z,30.09
2023-04-08T11:04:53.244Z,30.09
2023-04-08T11:05:53.271Z,30.06
2023-04-08T11:06:53.322Z,30.10
2023-04-08T11:07:53.385Z,30.10
2023-04-08T11:08:53.445Z,30.12
2023-04-08T11:09:53.463Z,30.13
2023-04-08T11:10:53.518Z,30.13
2023-04-08T11:11:53.575Z,30.17
2023-04-08T11:12:53.584Z,30.17
2023-04-08T11:13:54.070Z,30.19
2023-04-08T11:14:53.678Z,30.20
2023-04-08T11:15:53.716Z,30.23
2023-04-08T11:16:53.784Z,30.23
2023-04-08T11:17:53.859Z,30.22
2023-04-08T11:18:53.918Z,30.22
2023-04-08T11:19:53.882Z,30.20
2023-04-08T11:20:53.930Z,30.23
2023-04-08T11:21:53.996Z,30.20
2023-04-08T11:22:54.019Z,30.22
2023-04-08T11:23:54.504Z,30.23
2023-04-08T11:24:54.118Z,30.22
2023-04-08T11:25:54.129Z,30.22
2023-04-08T11:26:54.187Z,30.23
2023-04-08T11:27:54.249Z,30.24
2023-04-08T11:28:54.267Z,30.26
2023-04-08T11:29:54.298Z,30.30
2023-04-08T11:30:54.391Z,30.28
2023-04-08T11:31:54.395Z,30.31
2023-04-08T11:32:54.593Z,30.30
2023-04-08T11:33:54.484Z,30.33
2023-04-08T11:34:54.440Z,30.34
2023-04-08T11:35:54.455Z,30.36
2023-04-08T11:36:54.551Z,30.38
2023-04-08T11:37:54.525Z,30.41
2023-04-08T11:38:54.547Z,30.46
2023-04-08T11:39:54.560Z,30.44
2023-04-08T11:40:54.747Z,30.46
2023-04-08T11:41:54.653Z,30.48
2023-04-08T11:42:54.684Z,30.46
2023-04-08T11:43:54.677Z,30.48
2023-04-08T11:44:54.674Z,30.47
2023-04-08T11:45:54.676Z,30.50
2023-04-08T11:46:54.727Z,30.50
2023-04-08T11:47:54.738Z,30.51
2023-04-08T11:48:54.726Z,30.53
2023-04-08T11:49:54.724Z,30.56
2023-04-08T11:50:54.807Z,30.56
2023-04-08T11:51:54.821Z,30.57
2023-04-08T11:52:54.804Z,30.57
2023-04-08T11:53:56.390Z,30.56
2023-04-08T11:54:54.827Z,30.57
2023-04-08T11:55:54.849Z,30.54
2023-04-08T11:56:54.847Z,30.59
2023-04-08T11:57:54.898Z,30.59
2023-04-08T11:58:54.875Z,30.59
2023-04-08T11:59:54.922Z,30.59
2023-04-08T12:00:54.918Z,30.59
2023-04-08T12:01:54.926Z,30.59
2023-04-08T12:02:55.086Z,30.63
2023-04-08T12:03:55.641Z,30.61
2023-04-08T12:04:54.989Z,30.60
2023-04-08T12:05:54.953Z,30.64
2023-04-08T12:06:56.836Z,30.60
2023-04-08T12:07:54.959Z,30.63
2023-04-08T12:08:54.966Z,30.63
2023-04-08T12:09:54.940Z,30.61
2023-04-08T12:10:54.941Z,30.60
2023-04-08T12:11:54.958Z,30.61
2023-04-08T12:12:54.953Z,30.60
2023-04-08T12:13:54.972Z,30.61
2023-04-08T12:14:54.900Z,30.63
2023-04-08T12:15:54.947Z,30.60
2023-04-08T12:16:54.949Z,30.60
2023-04-08T12:17:55.046Z,30.60
2023-04-08T12:18:54.861Z,30.61
2023-04-08T12:19:55.372Z,30.59
2023-04-08T12:20:54.924Z,30.59
2023-04-08T12:21:54.915Z,30.57
2023-04-08T12:22:54.882Z,30.59
2023-04-08T12:23:54.878Z,30.59
2023-04-08T12:24:54.833Z,30.57
2023-04-08T12:25:54.843Z,30.56
2023-04-08T12:26:54.850Z,30.59
2023-04-08T12:27:54.816Z,30.59
2023-04-08T12:28:54.942Z,30.57
2023-04-08T12:29:54.821Z,30.53
2023-04-08T12:30:54.823Z,30.53
2023-04-08T12:31:54.868Z,30.54
2023-04-08T12:32:54.845Z,30.50
2023-04-08T12:33:54.851Z,30.50
2023-04-08T12:34:54.810Z,30.54
2023-04-08T12:35:54.907Z,30.53
2023-04-08T12:36:54.826Z,30.56
2023-04-08T12:37:54.838Z,30.53
2023-04-08T12:38:54.757Z,30.53
2023-04-08T12:39:54.774Z,30.54
2023-04-08T12:40:54.759Z,30.56
2023-04-08T12:41:54.764Z,30.56
2023-04-08T12:42:54.775Z,30.59
2023-04-08T12:43:54.781Z,30.59
2023-04-08T12:44:54.771Z,30.60
2023-04-08T12:45:54.718Z,30.60
2023-04-08T12:46:54.754Z,30.66
2023-04-08T12:47:54.742Z,30.64
2023-04-08T12:49:03.177Z,30.66
2023-04-08T12:49:55.743Z,30.66
2023-04-08T12:50:54.728Z,30.69
2023-04-08T12:51:54.776Z,30.69
2023-04-08T12:52:54.747Z,30.73
2023-04-08T12:53:54.661Z,30.71
2023-04-08T12:54:54.681Z,30.71